Subaru Cyclo Cup - Day One - 12:00

Saturday, November 14, 2015 12:07 PM (GMT-8) - Final results

Race info
Sport: Cycling - cyclocross
Location: Lakewood, WA, United States
Start type: Mass start
Racers: 68
Timed on: iPhone
Timed with: Webscorer PRO 2.1
Chip timing: RFID - LLRP
Updated: Wednesday, November 18, 2015 5:43 PM (GMT-8)
Organized by: MFG Presents
Race website: www.mfgcyclocross.com

Contact organizer

Use this form to send an email to the organizer.

Your name
Your email address
Confirm email address
Message to organizer
Send

Subaru Cyclo Cup - Day One - 12:00

  • Cat 3 Men
Place Bib Racer name Affiliation Category Age Finish time
1299Daniel OlsenHODALA - 261089 Cat 3 Men33 41:45.05--100%7.43%5.89%12:07:24.8
2259Garrett SczechowskiDyna Racing - 345782 Cat 3 Men23 42:00.05+0:15.0+0.60%99.40%6.87%5.32%12:07:24.8
3255Collin Van SlykeRacepace - 338762 Cat 3 Men24 42:20.15+0:35.1+1.40%98.62%6.13%4.57%12:07:24.8
4245Nick BoroughsSoft Like Kitten - 415032 Cat 3 Men28 42:40.15+0:55.1+2.20%97.85%5.39%3.82%12:07:24.8
5261Patrick DunnSCCA / Starbucks Cycling - 276042 Cat 3 Men26 42:50.95+1:05.9+2.63%97.44%4.99%3.41%12:07:24.8
6246Kevin HansenRavenna Capital Managment - 221895 Cat 3 Men32 43:12.15+1:27.1+3.48%96.64%4.21%2.61%12:07:24.8
7253Daniel HertelRacepace - 396453 Cat 3 Men25 43:23.25+1:38.2+3.92%96.23%3.80%2.20%12:07:24.8
8248Graham Robinson416952 Cat 3 Men22 44:02.75+2:17.7+5.50%94.79%2.34%0.71%12:07:24.8
9251Dieter LaskowskiPCP Racing - 360182 Cat 3 Men29 44:10.65+2:25.6+5.81%94.51%2.05%0.42%12:07:24.8
10257Justin ResnickApex/Cycle U - 284874 Cat 3 Men32 44:16.15+2:31.1+6.03%94.31%1.85%0.21%12:07:24.8
11250Luke OgdenAudi - 333612 Cat 3 Men24 44:21.75+2:36.7+6.26%94.11%1.64%0.00%12:07:24.8
12300Leigh ThurgoodHagens Berman Society Consulting - 393590 Cat 3 Men34 44:41.85+2:56.8+7.06%93.41%0.90%-0.76%12:07:24.8
13260Wyatt MasonRad Racing NW - 378713 Cat 3 Men16 44:50.15+3:05.1+7.39%93.12%0.59%-1.07%12:07:24.8
14247Bryan TorianOlympia Orthopeadic Associates - 342538 Cat 3 Men38 45:16.75+3:31.7+8.45%92.21%-0.39%-2.07%12:07:24.8
15258DAVID HOWARDOne-Day Cat 3 Men31 45:43.75+3:58.7+9.53%91.30%-1.39%-3.08%12:07:24.8
16256Nick Stroud390786 Cat 3 Men25 46:37.45+4:52.4+11.67%89.55%-3.38%-5.10%12:07:24.8
17297Zac StrodeGarage Cycling - 260766 Cat 3 Men29 47:10.55+5:25.5+12.99%88.50%-4.60%-6.34%12:07:24.8
18298Andrew EricksonGarage Racing - 273331 Cat 3 Men29 47:22.35+5:37.3+13.47%88.13%-5.04%-6.79%12:07:24.8
19249Peter BeelsAudi - 235743 Cat 3 Men27 48:34.95+6:49.9+16.36%85.94%-7.72%-9.51%12:07:24.8
20252Jeff Rasor210470 Cat 3 Men31 50:18.65+8:33.6+20.50%82.99%-11.55%-13.41%12:07:24.8
21243Corey GrobeSteed Cycles - CAN19870816 Cat 3 Men28 51:28.35+9:43.3+23.29%81.11%-14.13%-16.03%12:07:24.8
22241Alejandro GalindoVancouver Cat 3 Men32 -1 lap4-----12:07:24.8
23254James WhitesidesTen Speed Hero - 192020 Cat 3 Men34 -3 laps2-----12:07:24.8
-242Lewis Stamper WhileyRad Racing NW - 351580 Cat 3 Men17 DNF0-----12:07:24.8
  • Cat 3 Men 35+
Place Bib Racer name Affiliation Category Age Finish time
1345Andrew MorrisonSCCA / Starbucks Cycling - 369322 Cat 3 Men 35+36 43:31.55--100%7.91%7.58%12:07:24.8
2354Brian FalkowskiPC4 Men Racing - 398109 Cat 3 Men 35+41 44:52.95+1:21.4+3.12%96.98%5.04%4.70%12:07:24.8
3357Colin FergusonFanatik Bike Co. Race Team - 179698 Cat 3 Men 35+38 45:14.65+1:43.1+3.95%96.20%4.27%3.93%12:07:24.8
4356Pete SuperHagens Berman Society Consulting - 381072 Cat 3 Men 35+40 45:36.35+2:04.8+4.78%95.44%3.51%3.16%12:07:24.8
5350Dwaine Trummert391529 Cat 3 Men 35+46 45:52.15+2:20.6+5.38%94.89%2.95%2.60%12:07:24.8
62095Richard SteeleGarage Racing - 58347 Cat 3 Men 35+40 46:07.85+2:36.3+5.99%94.35%2.40%2.05%12:07:24.8
7352Rob McgartyRecycled Cycles Racing - 328238 Cat 3 Men 35+40 46:36.45+3:04.9+7.08%93.39%1.39%1.04%12:07:24.8
8341James HartDyna Racing - 339566 Cat 3 Men 35+40 46:51.05+3:19.5+7.64%92.90%0.87%0.52%12:07:24.8
9355Clive PursehouseMotofish Racing - 290462 Cat 3 Men 35+42 47:05.75+3:34.2+8.20%92.42%0.36%0.00%12:07:24.8
10343Erik Anderson161052 Cat 3 Men 35+40 47:26.05+3:54.5+8.98%91.76%-0.36%-0.72%12:07:24.8
112081Steven Moe371791 Cat 3 Men 35+43 47:31.35+3:59.8+9.18%91.59%-0.55%-0.91%12:07:24.8
12348Jeff CotaOld Town Bicycle P/B Green Earthworks - 360385 Cat 3 Men 35+39 48:20.05+4:48.5+11.05%90.05%-2.26%-2.63%12:07:24.8
13351Aaron VanderwaalMafia Racing NW - 236444 Cat 3 Men 35+41 48:24.05+4:52.5+11.20%89.93%-2.40%-2.77%12:07:24.8
14346Clinton SealBicycle Centers - 254885 Cat 3 Men 35+34 48:55.15+5:23.6+12.39%88.97%-3.50%-3.87%12:07:24.8
15349Kristofer KoehnDyna Racing - 375692 Cat 3 Men 35+42 49:19.55+5:48.0+13.33%88.24%-4.36%-4.74%12:07:24.8
16397Mark RoughgardenMachete Squad - 53908 Cat 3 Men 35+41 50:07.55+6:36.0+15.16%86.83%-6.05%-6.43%12:07:24.8
17344George Romer30491 Cat 3 Men 35+44 51:36.95+8:05.4+18.59%84.33%-9.21%-9.60%12:07:24.8
18347Tim Hubner286035 Cat 3 Men 35+35 -3 laps2-----12:07:24.8
  • Cat 3 Men 45+
Place Bib Racer name Affiliation Category Age Finish time
1353Pedro DeguzmanHotwire / Alki Velo Club - 457786 Cat 3 Men 45+45 45:49.65--100%5.34%5.98%12:07:24.8
2543Bob KrugerNative - 224684 Cat 3 Men 45+46 46:35.65+0:46.0+1.67%98.35%3.75%4.41%12:07:24.8
3551Pat MillerHagens Berman Society Consulting - 416814 Cat 3 Men 45+44 46:51.55+1:01.9+2.25%97.80%3.21%3.86%12:07:24.8
4555Erik OlsonCucina Fresca - 26714 Cat 3 Men 45+50 46:52.25+1:02.6+2.28%97.77%3.18%3.84%12:07:24.8
5556Randy ManionDyna Racing - 288325 Cat 3 Men 45+46 46:57.55+1:07.9+2.47%97.59%3.00%3.66%12:07:24.8
6600Steve HindmanPen Velo Racing/Summit Bikes - 62921 Cat 3 Men 45+48 47:06.75+1:17.1+2.80%97.27%2.68%3.34%12:07:24.8
7550Denny BartlettBikesport - 49565 Cat 3 Men 45+47 47:43.25+1:53.6+4.13%96.03%1.43%2.10%12:07:24.8
8554John DrenningDyna Racing - 121908 Cat 3 Men 45+47 48:41.05+2:51.4+6.23%94.13%-0.56%0.12%12:07:24.8
9559Greg SweneyMotofish - 306900 Cat 3 Men 45+48 48:44.55+2:54.9+6.36%94.02%-0.68%0.00%12:07:24.8
10544TODD ANDERSONBike Masters - 1713 Cat 3 Men 45+53 48:48.35+2:58.7+6.50%93.90%-0.81%-0.13%12:07:24.8
11546Todd Reedy457546 Cat 3 Men 45+52 49:01.15+3:11.5+6.96%93.49%-1.25%-0.57%12:07:24.8
12541Darrin GrundEV/DEVO P/B Catalyst Kinetics - CAN19661217 Cat 3 Men 45+49 49:05.05+3:15.4+7.11%93.37%-1.39%-0.70%12:07:24.8
13545Owen ScottSteed Cycles - BC001656 Cat 3 Men 45+48 49:11.55+3:21.9+7.34%93.16%-1.61%-0.92%12:07:24.8
14548Paul ClaeysDyna Racing - 362192 Cat 3 Men 45+51 49:31.85+3:42.2+8.08%92.52%-2.31%-1.62%12:07:24.8
15549Kenneth RamirezNemesis Racing - 255649 Cat 3 Men 45+46 49:55.45+4:05.8+8.94%91.79%-3.12%-2.42%12:07:24.8
16562George JacksonOld Town Bicycle P/B Green Earthworks - 256713 Cat 3 Men 45+52 50:56.65+5:07.0+11.17%89.96%-5.23%-4.52%12:07:24.8
17552Nigel Newby-HouseMotofish - One-Day Cat 3 Men 45+46 51:07.65+5:18.0+11.57%89.63%-5.61%-4.89%12:07:24.8
18557Brett GaspersCycle U/Apex Racing - 222902 Cat 3 Men 45+51 -1 lap4-----12:07:24.8
19561Nathan WebsterBlue Rooster - 52142 Cat 3 Men 45+48 -1 lap4-----12:07:24.8
20599Carl AntonRecycled Cycles Racing - One-Day Cat 3 Men 45+45 -1 lap4-----12:07:24.8
21542Tim KiblerPCP Racing - 66004 Cat 3 Men 45+49 -1 lap4-----12:07:24.8
22547Carl FranssenOne-Day Cat 3 Men 45+52 -1 lap4-----12:07:24.8
23560Reeve GearyBlue Rooster - 12989 Cat 3 Men 45+49 -1 lap4-----12:07:24.8
24558Jeff Aken1266 Cat 3 Men 45+48 -2 laps3-----12:07:24.8
25553Chris RoddeCucina Fresca - 30273 Cat 3 Men 45+46 -4 laps1-----12:07:24.8
-579Kempton BakerCascade Bicycle Studio - 253667 Cat 3 Men 45+50 DNF0-----12:07:24.8